Time;durP1;ratioP1;P1;durP2;ratioP2;P2;SDS_P1;SDS_P2;PMS_P1;PMS_P2;Temp;Humidity;BMP_temperature;BMP_pressure;BME280_temperature;BME280_humidity;BME280_pressure;Samples;Min_cycle;Max_cycle;Signal;HPM_P1;HPM_P2
2023/10/24 00:02:25;;;;;;;12.43;8.87;;;11.90;99.90;;;;;;5074003;28;20459;-62
2023/10/24 00:04:52;;;;;;;11.30;8.80;;;11.90;99.90;;;;;;5073877;28;20438;-62
2023/10/24 00:07:18;;;;;;;12.23;9.70;;;11.90;99.90;;;;;;5073830;28;20435;-62
2023/10/24 00:09:45;;;;;;;13.10;9.20;;;11.90;99.90;;;;;;5074513;28;20439;-62
2023/10/24 00:12:13;;;;;;;10.10;8.53;;;11.90;99.90;;;;;;5074318;28;20471;-62
2023/10/24 00:14:40;;;;;;;10.20;9.20;;;11.90;99.90;;;;;;5080251;28;20792;-62
2023/10/24 00:17:06;;;;;;;11.40;8.10;;;11.90;99.90;;;;;;5077715;28;20482;-62
2023/10/24 00:19:33;;;;;;;13.30;10.20;;;11.90;99.90;;;;;;5074747;28;20447;-61
2023/10/24 00:22:01;;;;;;;11.13;9.53;;;11.90;99.90;;;;;;5074273;28;20459;-62
2023/10/24 00:24:28;;;;;;;12.20;9.33;;;11.80;99.90;;;;;;5073841;28;20439;-61
2023/10/24 00:26:55;;;;;;;13.10;10.50;;;11.80;99.90;;;;;;5075303;28;20634;-63
2023/10/24 00:29:23;;;;;;;12.17;9.20;;;11.80;99.90;;;;;;5078004;28;20467;-61
2023/10/24 00:31:50;;;;;;;11.37;9.70;;;11.80;99.90;;;;;;5078261;28;20463;-61
2023/10/24 00:34:17;;;;;;;10.60;9.30;;;11.80;99.90;;;;;;5078433;28;20455;-62
2023/10/24 00:36:44;;;;;;;10.80;8.80;;;11.80;99.90;;;;;;5080876;28;20502;-62
2023/10/24 00:39:11;;;;;;;11.53;9.30;;;11.80;99.90;;;;;;5083061;28;20443;-62
2023/10/24 00:41:38;;;;;;;10.37;9.37;;;11.80;99.90;;;;;;5078644;28;20927;-62
2023/10/24 00:44:06;;;;;;;10.80;9.63;;;11.70;99.90;;;;;;5078206;28;20450;-62
2023/10/24 00:46:35;;;;;;;10.80;9.80;;;11.70;99.90;;;;;;5077623;28;20839;-61
2023/10/24 00:49:03;;;;;;;9.77;8.77;;;11.70;99.90;;;;;;5077807;28;20439;-62
2023/10/24 00:51:30;;;;;;;11.67;9.30;;;11.70;99.90;;;;;;5078311;28;20537;-62
2023/10/24 00:53:58;;;;;;;12.80;10.37;;;11.70;99.90;;;;;;5078469;28;20450;-63
2023/10/24 00:56:26;;;;;;;10.80;9.70;;;11.70;99.90;;;;;;5078240;28;20937;-62
2023/10/24 00:58:53;;;;;;;10.57;9.50;;;11.70;99.90;;;;;;5078695;28;20447;-61
2023/10/24 01:01:20;;;;;;;12.33;10.00;;;11.70;99.90;;;;;;5077930;28;20466;-62
2023/10/24 01:03:50;;;;;;;10.03;8.80;;;11.70;99.90;;;;;;5077682;28;20458;-62
2023/10/24 01:06:17;;;;;;;12.50;9.23;;;11.70;99.90;;;;;;5077246;28;20442;-61
2023/10/24 01:08:44;;;;;;;9.50;8.50;;;11.70;99.90;;;;;;5077487;28;20535;-62
2023/10/24 01:11:11;;;;;;;10.33;8.40;;;11.70;99.90;;;;;;5077645;28;20478;-62
2023/10/24 01:13:39;;;;;;;10.83;8.87;;;11.70;99.90;;;;;;5077801;28;20496;-62
2023/10/24 01:16:06;;;;;;;10.57;8.67;;;11.70;99.90;;;;;;5077194;28;20447;-61
2023/10/24 01:18:33;;;;;;;10.67;9.00;;;11.70;99.90;;;;;;5077433;28;21113;-62
2023/10/24 01:21:01;;;;;;;9.93;8.90;;;11.70;99.90;;;;;;5078305;28;20439;-62
2023/10/24 01:23:31;;;;;;;12.80;9.20;;;11.70;99.90;;;;;;5079716;28;20478;-61
2023/10/24 01:25:58;;;;;;;13.00;9.23;;;11.70;99.90;;;;;;5078354;28;20454;-60
2023/10/24 01:28:26;;;;;;;12.77;8.80;;;11.70;99.90;;;;;;5076950;28;20435;-61
2023/10/24 01:30:53;;;;;;;14.90;10.03;;;11.70;99.90;;;;;;5077571;28;20443;-61
2023/10/24 01:33:21;;;;;;;11.37;8.90;;;11.70;99.90;;;;;;5076948;28;20431;-62
2023/10/24 01:35:48;;;;;;;9.50;8.50;;;11.70;99.90;;;;;;5076553;28;20473;-62
2023/10/24 01:38:14;;;;;;;13.70;9.60;;;11.70;99.90;;;;;;5076996;28;20475;-61
2023/10/24 01:40:42;;;;;;;13.53;10.50;;;11.70;99.90;;;;;;5076286;28;20485;-62
2023/10/24 01:43:09;;;;;;;11.80;9.90;;;11.70;99.90;;;;;;5076075;28;20463;-61
2023/10/24 01:45:36;;;;;;;11.37;10.17;;;11.70;99.90;;;;;;5076327;28;20806;-62
2023/10/24 01:48:03;;;;;;;12.10;9.30;;;11.70;99.90;;;;;;5076433;28;20439;-61
2023/10/24 01:50:30;;;;;;;11.93;8.90;;;11.70;99.90;;;;;;5076356;28;20874;-62
2023/10/24 01:52:58;;;;;;;11.10;9.33;;;11.70;99.90;;;;;;5076299;28;20463;-61
2023/10/24 01:55:25;;;;;;;10.23;9.20;;;11.70;99.90;;;;;;5075970;28;20450;-61
2023/10/24 01:57:53;;;;;;;11.60;9.87;;;11.70;99.90;;;;;;5076134;28;20482;-62
2023/10/24 02:00:20;;;;;;;9.57;8.30;;;11.70;99.90;;;;;;5076200;28;20442;-62
2023/10/24 02:02:47;;;;;;;10.47;9.37;;;11.70;99.90;;;;;;5076654;28;21003;-62
2023/10/24 02:05:14;;;;;;;10.23;9.13;;;11.70;99.90;;;;;;5076080;28;20443;-62
2023/10/24 02:07:40;;;;;;;10.73;8.50;;;11.70;99.90;;;;;;5076547;28;20459;-62
2023/10/24 02:10:08;;;;;;;9.43;7.57;;;11.70;99.90;;;;;;5076596;28;20435;-61
2023/10/24 02:12:35;;;;;;;8.93;7.83;;;11.80;99.90;;;;;;5076383;28;20471;-62
2023/10/24 02:15:05;;;;;;;9.10;8.23;;;11.70;99.90;;;;;;5076290;28;20443;-62
2023/10/24 02:17:31;;;;;;;12.60;9.33;;;11.70;99.90;;;;;;5076445;28;20479;-61
2023/10/24 02:19:58;;;;;;;10.40;8.77;;;11.70;99.90;;;;;;5076439;28;20455;-62
2023/10/24 02:22:25;;;;;;;9.17;8.27;;;11.70;99.90;;;;;;5077141;28;20523;-62
2023/10/24 02:24:52;;;;;;;9.73;8.03;;;11.70;99.90;;;;;;5075332;28;20435;-62
2023/10/24 02:27:19;;;;;;;10.33;9.00;;;11.70;99.90;;;;;;5075797;28;20814;-61
2023/10/24 02:29:46;;;;;;;9.27;8.27;;;11.70;99.90;;;;;;5076092;28;20452;-61
2023/10/24 02:32:14;;;;;;;10.00;9.00;;;11.70;99.90;;;;;;5080865;28;20474;-62
2023/10/24 02:34:40;;;;;;;9.07;7.97;;;11.60;99.90;;;;;;5088440;28;20459;-61
2023/10/24 02:37:07;;;;;;;14.43;8.67;;;11.60;99.90;;;;;;5086131;28;20450;-61
2023/10/24 02:39:34;;;;;;;9.97;8.97;;;11.60;99.90;;;;;;5077942;28;20447;-62
2023/10/24 02:42:00;;;;;;;12.53;9.20;;;11.60;99.90;;;;;;5075771;28;20968;-61
2023/10/24 02:44:28;;;;;;;13.87;10.00;;;11.60;99.90;;;;;;5076232;28;20439;-62
2023/10/24 02:46:55;;;;;;;12.60;9.43;;;11.60;99.90;;;;;;5075406;28;20443;-61
2023/10/24 02:49:23;;;;;;;12.40;9.00;;;11.60;99.90;;;;;;5075340;28;20440;-62
2023/10/24 02:51:49;;;;;;;10.57;9.47;;;11.60;99.90;;;;;;5075435;28;20486;-62
2023/10/24 02:54:16;;;;;;;11.07;9.53;;;11.60;99.90;;;;;;5077440;28;20458;-61
2023/10/24 02:56:43;;;;;;;13.57;9.37;;;11.60;99.90;;;;;;5074918;28;20968;-61
2023/10/24 02:59:10;;;;;;;10.37;9.27;;;11.50;99.90;;;;;;5075461;28;20501;-61
2023/10/24 03:01:37;;;;;;;14.37;9.90;;;11.50;99.90;;;;;;5074682;28;20973;-62
2023/10/24 03:04:04;;;;;;;9.47;8.57;;;11.50;99.90;;;;;;5074738;28;20449;-62
2023/10/24 03:06:32;;;;;;;12.03;9.33;;;11.50;99.90;;;;;;5074345;28;20439;-61
2023/10/24 03:08:59;;;;;;;11.03;9.83;;;11.50;99.90;;;;;;5074853;28;20440;-62
2023/10/24 03:11:26;;;;;;;11.93;10.47;;;11.50;99.90;;;;;;5074337;28;20471;-61
2023/10/24 03:13:54;;;;;;;11.27;10.07;;;11.40;99.90;;;;;;5074553;28;20446;-62
2023/10/24 03:16:21;;;;;;;15.37;9.97;;;11.40;99.90;;;;;;5074510;28;20443;-61
2023/10/24 03:18:47;;;;;;;11.87;10.43;;;11.40;99.90;;;;;;5074193;28;20835;-62
2023/10/24 03:21:14;;;;;;;11.63;10.37;;;11.40;99.90;;;;;;5074099;28;20462;-61
2023/10/24 03:23:44;;;;;;;10.83;9.73;;;11.30;99.90;;;;;;5074273;28;20436;-61
2023/10/24 03:26:11;;;;;;;10.70;9.60;;;11.30;99.90;;;;;;5073852;28;20951;-61
2023/10/24 03:28:38;;;;;;;10.97;9.97;;;11.30;99.90;;;;;;5074952;28;20446;-63
2023/10/24 03:31:05;;;;;;;11.17;9.97;;;11.20;99.90;;;;;;5074012;28;20439;-62
2023/10/24 03:33:33;;;;;;;12.37;10.07;;;11.20;99.90;;;;;;5074123;28;20435;-62
2023/10/24 03:36:00;;;;;;;13.20;11.10;;;11.10;99.90;;;;;;5074568;28;20447;-62
2023/10/24 03:38:28;;;;;;;11.97;10.77;;;11.10;99.90;;;;;;5074295;28;20478;-62
2023/10/24 03:40:56;;;;;;;17.23;10.33;;;11.10;99.90;;;;;;5074418;28;20450;-62
2023/10/24 03:43:23;;;;;;;12.23;10.27;;;11.10;99.90;;;;;;5074367;28;20462;-61
2023/10/24 03:45:50;;;;;;;13.80;10.97;;;11.10;99.90;;;;;;5075038;28;20435;-62
2023/10/24 03:48:16;;;;;;;11.40;10.20;;;11.10;99.90;;;;;;5074312;28;20446;-62
2023/10/24 03:50:43;;;;;;;11.80;10.50;;;11.10;99.90;;;;;;5073496;28;20929;-61
2023/10/24 03:53:10;;;;;;;12.80;11.00;;;11.20;99.90;;;;;;5073930;28;20439;-61
2023/10/24 03:55:37;;;;;;;13.43;10.73;;;11.20;99.90;;;;;;5074587;28;20435;-62
2023/10/24 03:58:05;;;;;;;14.30;11.40;;;11.20;99.90;;;;;;5074381;28;20479;-62
2023/10/24 04:00:35;;;;;;;11.23;9.60;;;11.20;99.90;;;;;;5074467;28;20439;-61
2023/10/24 04:03:03;;;;;;;12.77;10.70;;;11.20;99.90;;;;;;5074206;28;20513;-61
2023/10/24 04:05:33;;;;;;;16.47;10.60;;;11.20;99.90;;;;;;5073807;28;20948;-62
2023/10/24 04:08:01;;;;;;;12.10;10.30;;;11.20;99.90;;;;;;5074053;28;20905;-61
2023/10/24 04:12:37;;;;;;;13.90;10.50;;;11.20;99.90;;;;;;5118833;27;21087;-58
2023/10/24 04:15:05;;;;;;;13.17;11.00;;;11.20;99.90;;;;;;5071952;28;20442;-61
2023/10/24 04:17:33;;;;;;;12.13;10.67;;;11.20;99.90;;;;;;5071816;28;20439;-62
2023/10/24 04:19:59;;;;;;;14.70;11.40;;;11.20;99.90;;;;;;5071040;28;20439;-62
2023/10/24 04:22:27;;;;;;;12.17;9.83;;;11.20;99.90;;;;;;5070729;28;20474;-61
2023/10/24 04:24:54;;;;;;;13.23;10.83;;;11.20;99.90;;;;;;5071429;28;20884;-62
2023/10/24 04:27:21;;;;;;;17.00;11.07;;;11.20;99.90;;;;;;5071636;28;20444;-61
2023/10/24 04:29:49;;;;;;;13.60;11.10;;;11.20;99.90;;;;;;5072116;28;20500;-61
2023/10/24 04:32:15;;;;;;;12.57;10.73;;;11.20;99.90;;;;;;5071899;28;20517;-61
2023/10/24 04:34:42;;;;;;;11.50;9.73;;;11.20;99.90;;;;;;5072300;28;20451;-62
2023/10/24 04:37:09;;;;;;;12.40;10.27;;;11.30;99.90;;;;;;5072059;28;20949;-61
2023/10/24 04:39:36;;;;;;;13.90;11.20;;;11.30;99.90;;;;;;5072086;28;20436;-61
2023/10/24 04:42:02;;;;;;;11.57;9.70;;;11.30;99.90;;;;;;5072935;28;20455;-61
2023/10/24 04:44:29;;;;;;;14.37;10.23;;;11.30;99.90;;;;;;5073351;28;20435;-61
2023/10/24 04:46:59;;;;;;;12.03;10.80;;;11.30;99.90;;;;;;5072723;28;20484;-62
2023/10/24 04:49:25;;;;;;;11.70;10.20;;;11.30;99.90;;;;;;5073705;28;20448;-61
2023/10/24 04:51:52;;;;;;;11.43;10.17;;;11.30;99.90;;;;;;5071600;28;20479;-61
2023/10/24 04:54:19;;;;;;;14.13;9.73;;;11.40;99.90;;;;;;5071410;28;20443;-60
2023/10/24 04:56:46;;;;;;;13.63;10.00;;;11.40;99.90;;;;;;5077931;28;20443;-61
2023/10/24 04:59:13;;;;;;;12.63;9.83;;;11.30;99.90;;;;;;5078221;28;20447;-61
2023/10/24 05:01:40;;;;;;;12.27;10.37;;;11.40;99.90;;;;;;5070772;28;20469;-62
2023/10/24 05:04:08;;;;;;;13.33;9.30;;;11.40;99.90;;;;;;5071137;28;20454;-61
2023/10/24 05:06:36;;;;;;;11.93;9.60;;;11.40;99.90;;;;;;5070763;28;20443;-61
2023/10/24 05:09:03;;;;;;;11.03;9.97;;;11.40;99.90;;;;;;5071436;28;20447;-60
2023/10/24 05:11:29;;;;;;;14.00;10.33;;;11.40;99.90;;;;;;5071134;28;20483;-61
2023/10/24 05:13:56;;;;;;;13.73;10.00;;;11.40;99.90;;;;;;5071470;28;20445;-60
2023/10/24 05:16:23;;;;;;;12.33;9.87;;;11.40;99.90;;;;;;5072170;28;20473;-60
2023/10/24 05:18:50;;;;;;;16.20;10.80;;;11.40;99.90;;;;;;5071444;28;20435;-61
2023/10/24 05:21:18;;;;;;;11.13;9.50;;;11.40;99.90;;;;;;5071378;28;20463;-61
2023/10/24 05:23:45;;;;;;;10.67;9.67;;;11.40;99.90;;;;;;5058330;28;20523;-61
2023/10/24 05:26:11;;;;;;;11.27;9.17;;;11.40;99.90;;;;;;5057626;28;20455;-62
2023/10/24 05:28:38;;;;;;;11.70;9.60;;;11.40;99.90;;;;;;5058608;28;20459;-61
2023/10/24 05:31:08;;;;;;;10.50;9.27;;;11.40;99.90;;;;;;5058205;28;20476;-61
2023/10/24 05:33:35;;;;;;;11.13;9.80;;;11.40;99.90;;;;;;5057569;28;20444;-60
2023/10/24 05:36:02;;;;;;;10.03;8.80;;;11.40;99.90;;;;;;5057499;28;20815;-61
2023/10/24 05:38:32;;;;;;;10.80;9.63;;;11.40;99.90;;;;;;5058698;28;20440;-61
2023/10/24 05:40:59;;;;;;;10.50;9.37;;;11.40;99.90;;;;;;5059677;28;20424;-59
2023/10/24 05:43:26;;;;;;;11.63;8.60;;;11.40;99.90;;;;;;5059220;28;20810;-60
2023/10/24 05:45:53;;;;;;;10.13;8.27;;;11.40;99.90;;;;;;5068167;28;20447;-59
2023/10/24 05:48:20;;;;;;;13.03;9.40;;;11.40;99.90;;;;;;5060514;28;20972;-61
2023/10/24 05:50:46;;;;;;;12.47;8.83;;;11.40;99.90;;;;;;5060191;28;20484;-61
2023/10/24 05:53:13;;;;;;;9.73;8.50;;;11.40;99.90;;;;;;5061627;28;20444;-60
2023/10/24 05:55:41;;;;;;;9.60;8.33;;;11.40;99.90;;;;;;5063076;28;20436;-60
2023/10/24 05:58:08;;;;;;;14.37;8.63;;;11.40;99.90;;;;;;5062898;28;20795;-59
2023/10/24 06:00:35;;;;;;;13.87;9.70;;;11.40;99.90;;;;;;5064856;28;20446;-61
2023/10/24 06:03:01;;;;;;;12.57;9.03;;;11.40;99.90;;;;;;5062710;28;20460;-60
2023/10/24 06:05:28;;;;;;;12.30;9.30;;;11.40;99.90;;;;;;5062447;28;20440;-61
2023/10/24 06:07:55;;;;;;;11.73;8.50;;;11.40;99.90;;;;;;5063355;28;20539;-62
2023/10/24 06:10:21;;;;;;;10.73;9.50;;;11.40;99.90;;;;;;5059942;28;20456;-62
2023/10/24 06:12:49;;;;;;;10.27;8.90;;;11.40;99.90;;;;;;5061275;28;20492;-61
2023/10/24 06:15:16;;;;;;;9.63;7.67;;;11.50;99.90;;;;;;5059337;28;20435;-61
2023/10/24 06:17:43;;;;;;;11.90;7.50;;;11.50;99.90;;;;;;5059240;28;20444;-61
2023/10/24 06:20:10;;;;;;;10.90;7.20;;;11.50;99.90;;;;;;5058303;28;20436;-61
2023/10/24 06:22:37;;;;;;;9.73;7.10;;;11.50;99.90;;;;;;5056552;28;20457;-61
2023/10/24 06:25:04;;;;;;;9.80;6.93;;;11.50;99.90;;;;;;5056986;28;20445;-62
2023/10/24 06:27:31;;;;;;;11.00;7.13;;;11.60;99.90;;;;;;5056570;28;20780;-62
2023/10/24 06:29:59;;;;;;;9.13;8.23;;;11.60;99.90;;;;;;5057353;28;20440;-61
2023/10/24 06:32:26;;;;;;;9.77;7.07;;;11.60;99.90;;;;;;5056850;28;20495;-62
2023/10/24 06:34:52;;;;;;;10.57;6.60;;;11.60;99.90;;;;;;5055647;28;20515;-61
2023/10/24 06:37:19;;;;;;;7.33;6.63;;;11.70;99.90;;;;;;5058660;28;20455;-60
2023/10/24 06:39:46;;;;;;;9.03;6.07;;;11.70;99.90;;;;;;5059061;28;20818;-61
2023/10/24 06:42:13;;;;;;;9.13;7.00;;;11.70;99.90;;;;;;5058315;28;20467;-60
2023/10/24 06:44:40;;;;;;;9.27;6.40;;;11.80;99.90;;;;;;5059473;28;20441;-60
2023/10/24 06:47:08;;;;;;;6.57;5.97;;;11.80;99.90;;;;;;5058407;28;20440;-59
2023/10/24 06:49:35;;;;;;;11.37;7.50;;;11.80;99.90;;;;;;5057501;28;20459;-59
2023/10/24 06:52:02;;;;;;;7.23;6.43;;;11.90;99.90;;;;;;5057925;28;20490;-59
2023/10/24 06:54:28;;;;;;;7.70;7.00;;;11.90;99.90;;;;;;5059500;28;20466;-61
2023/10/24 06:56:55;;;;;;;10.53;6.70;;;11.90;99.90;;;;;;5056436;28;20447;-61
2023/10/24 06:59:22;;;;;;;8.63;6.03;;;12.00;99.90;;;;;;5055929;28;20448;-62
2023/10/24 07:01:49;;;;;;;7.10;6.33;;;12.00;99.90;;;;;;5055830;28;20459;-63
2023/10/24 07:04:18;;;;;;;7.10;6.30;;;12.10;99.90;;;;;;5056766;28;20454;-60
2023/10/24 07:06:44;;;;;;;6.60;5.40;;;12.10;99.90;;;;;;5055582;28;20451;-61
2023/10/24 07:09:11;;;;;;;7.10;5.73;;;12.10;99.90;;;;;;5056374;28;20440;-61
2023/10/24 07:11:38;;;;;;;10.93;5.67;;;12.20;99.90;;;;;;5055969;28;21016;-61
2023/10/24 07:14:05;;;;;;;9.50;5.37;;;12.20;99.90;;;;;;5056787;28;20519;-62
2023/10/24 07:16:31;;;;;;;5.60;5.10;;;12.20;99.90;;;;;;5056580;28;20937;-62
2023/10/24 07:18:58;;;;;;;5.00;4.60;;;12.20;99.90;;;;;;5057746;28;20448;-63
2023/10/24 07:21:26;;;;;;;8.13;5.40;;;12.30;99.90;;;;;;5055908;28;20460;-62
2023/10/24 07:23:54;;;;;;;6.30;4.73;;;12.30;99.90;;;;;;5054689;28;20787;-62
2023/10/24 07:26:21;;;;;;;9.20;4.80;;;12.30;99.90;;;;;;5056607;28;20452;-63
2023/10/24 07:28:48;;;;;;;6.63;4.57;;;12.40;99.90;;;;;;5065622;28;20444;-63
2023/10/24 07:31:14;;;;;;;7.90;4.07;;;12.40;99.90;;;;;;5061678;28;20562;-62
2023/10/24 07:33:41;;;;;;;5.80;4.03;;;12.50;99.90;;;;;;5055729;28;20440;-61
2023/10/24 07:36:09;;;;;;;6.63;3.63;;;12.60;99.90;;;;;;5055482;28;20518;-62
2023/10/24 07:38:38;;;;;;;4.33;3.20;;;12.60;99.90;;;;;;5055395;28;20459;-64
2023/10/24 07:41:06;;;;;;;3.70;3.30;;;12.70;99.90;;;;;;5054541;28;20569;-63
2023/10/24 07:43:32;;;;;;;4.13;3.23;;;12.80;99.90;;;;;;5054551;28;20444;-63
2023/10/24 07:45:59;;;;;;;4.40;3.80;;;12.80;99.90;;;;;;5054895;28;20460;-62
2023/10/24 07:48:26;;;;;;;4.03;3.40;;;12.90;99.90;;;;;;5054513;28;20451;-63
2023/10/24 07:50:54;;;;;;;4.17;3.73;;;13.00;99.90;;;;;;5053718;28;20439;-62
2023/10/24 07:53:21;;;;;;;3.87;3.20;;;13.10;99.90;;;;;;5054187;28;20480;-61
2023/10/24 07:55:49;;;;;;;4.47;3.10;;;13.20;99.90;;;;;;5053440;28;20444;-61
2023/10/24 07:58:17;;;;;;;8.60;3.93;;;13.30;99.90;;;;;;5054133;28;20444;-61
2023/10/24 08:00:44;;;;;;;5.37;2.40;;;13.40;99.90;;;;;;5054085;28;20449;-62
2023/10/24 08:03:11;;;;;;;2.90;2.50;;;13.50;99.90;;;;;;5054042;28;20444;-66
2023/10/24 08:05:38;;;;;;;3.70;3.00;;;13.50;99.90;;;;;;5054268;28;20444;-61
2023/10/24 08:08:06;;;;;;;5.87;3.07;;;13.60;99.90;;;;;;5054452;28;20444;-61
2023/10/24 08:10:33;;;;;;;3.20;2.60;;;13.60;99.90;;;;;;5053847;28;20452;-62
2023/10/24 08:13:01;;;;;;;4.30;3.43;;;13.70;99.90;;;;;;5053795;28;20479;-61
2023/10/24 08:15:29;;;;;;;3.80;2.70;;;13.70;99.90;;;;;;5054276;28;20452;-62
2023/10/24 08:17:56;;;;;;;3.70;2.80;;;13.80;99.90;;;;;;5054614;28;20451;-63
2023/10/24 08:20:23;;;;;;;5.20;2.90;;;13.80;99.90;;;;;;5054304;28;20436;-61
2023/10/24 08:22:51;;;;;;;3.10;2.30;;;13.90;99.90;;;;;;5053359;28;20465;-64
2023/10/24 08:25:18;;;;;;;4.10;2.90;;;13.90;99.90;;;;;;5053503;28;20451;-62
2023/10/24 08:27:45;;;;;;;5.30;2.80;;;14.00;99.90;;;;;;5053405;28;20968;-61
2023/10/24 08:30:13;;;;;;;3.90;2.87;;;14.00;99.90;;;;;;5053273;28;20446;-63
2023/10/24 08:32:41;;;;;;;3.97;2.63;;;14.10;99.90;;;;;;5053507;28;20490;-62
2023/10/24 08:35:09;;;;;;;3.73;2.80;;;14.10;99.90;;;;;;5053509;28;20458;-61
2023/10/24 08:37:36;;;;;;;4.13;2.50;;;14.10;99.90;;;;;;5054463;28;20521;-63
2023/10/24 08:40:03;;;;;;;5.50;2.33;;;14.10;99.90;;;;;;5053852;28;20444;-62
2023/10/24 08:42:30;;;;;;;5.67;2.70;;;14.10;99.90;;;;;;5053956;28;20498;-62
2023/10/24 08:44:58;;;;;;;3.60;2.97;;;14.20;99.90;;;;;;5054338;28;20493;-64
2023/10/24 08:47:28;;;;;;;3.73;2.70;;;14.20;99.90;;;;;;5054513;28;21003;-61
2023/10/24 08:49:56;;;;;;;3.97;2.30;;;14.20;99.90;;;;;;5053581;28;20448;-61
2023/10/24 08:52:23;;;;;;;4.40;2.37;;;14.30;99.90;;;;;;5053452;28;20513;-61
2023/10/24 08:54:51;;;;;;;3.60;2.50;;;14.30;99.90;;;;;;5053872;28;20444;-60
2023/10/24 08:57:23;;;;;;;4.10;3.43;;;14.40;99.90;;;;;;5054595;28;20852;-61
2023/10/24 08:59:51;;;;;;;5.73;2.57;;;14.40;99.90;;;;;;5057956;28;20427;-61
2023/10/24 09:02:18;;;;;;;5.17;2.90;;;14.50;99.90;;;;;;5057553;28;21012;-60
2023/10/24 09:04:47;;;;;;;3.63;3.33;;;14.60;99.90;;;;;;5057878;28;20444;-61
2023/10/24 09:07:14;;;;;;;4.37;3.03;;;14.70;99.90;;;;;;5058284;28;20444;-62
2023/10/24 09:09:40;;;;;;;3.40;3.10;;;14.80;99.90;;;;;;5057754;28;20966;-61
2023/10/24 09:12:09;;;;;;;6.17;3.40;;;14.90;99.90;;;;;;5057906;28;20487;-61
2023/10/24 09:14:36;;;;;;;3.97;2.77;;;14.90;99.90;;;;;;5058820;28;20440;-60
2023/10/24 09:17:04;;;;;;;3.60;2.87;;;15.00;99.90;;;;;;5058228;28;20436;-61
2023/10/24 09:19:31;;;;;;;5.47;2.93;;;15.10;99.90;;;;;;5058094;28;20440;-60
2023/10/24 09:21:59;;;;;;;3.10;2.67;;;15.20;99.90;;;;;;5058439;28;20875;-60
2023/10/24 09:24:26;;;;;;;4.47;2.50;;;15.20;99.90;;;;;;5059999;28;20454;-61
2023/10/24 09:26:54;;;;;;;6.10;2.83;;;15.20;99.90;;;;;;5058999;28;20452;-60
2023/10/24 09:29:24;;;;;;;4.17;2.77;;;15.20;99.90;;;;;;5057229;28;20448;-62
2023/10/24 09:31:51;;;;;;;5.83;3.20;;;15.30;99.90;;;;;;5058407;28;20504;-61
2023/10/24 09:34:19;;;;;;;4.43;3.30;;;15.30;99.90;;;;;;5057634;28;20918;-61
2023/10/24 09:36:47;;;;;;;5.53;2.77;;;15.30;99.90;;;;;;5056750;28;20452;-60
2023/10/24 09:39:16;;;;;;;5.50;3.07;;;15.40;99.90;;;;;;5057056;28;20835;-61
2023/10/24 09:41:44;;;;;;;4.10;2.80;;;15.40;99.90;;;;;;5056594;28;20464;-60
2023/10/24 09:44:11;;;;;;;5.83;2.87;;;15.40;99.90;;;;;;5056846;28;20440;-61
2023/10/24 09:46:39;;;;;;;7.10;2.73;;;15.30;99.90;;;;;;5057215;28;20453;-61
2023/10/24 09:49:07;;;;;;;3.13;2.73;;;15.30;99.90;;;;;;5057246;28;20444;-62
2023/10/24 09:51:35;;;;;;;3.83;2.87;;;15.30;99.90;;;;;;5056985;28;20467;-61
2023/10/24 09:54:03;;;;;;;5.20;2.57;;;15.20;99.90;;;;;;5057465;28;20488;-59
2023/10/24 09:56:32;;;;;;;4.00;3.10;;;15.20;99.90;;;;;;5057167;28;20789;-60
2023/10/24 09:58:59;;;;;;;4.37;2.63;;;15.10;99.90;;;;;;5057296;28;20459;-60
2023/10/24 10:01:28;;;;;;;4.07;2.60;;;15.10;99.90;;;;;;5055919;28;20475;-61
2023/10/24 10:03:58;;;;;;;3.60;3.07;;;15.10;99.90;;;;;;5056670;28;20442;-60
2023/10/24 10:06:27;;;;;;;3.03;2.17;;;15.20;99.90;;;;;;5055838;28;20447;-62
2023/10/24 10:08:56;;;;;;;6.70;2.70;;;15.10;99.90;;;;;;5056679;28;20452;-62
2023/10/24 10:11:23;;;;;;;4.57;2.27;;;15.10;99.90;;;;;;5056133;28;20551;-61
2023/10/24 10:13:54;;;;;;;5.93;4.97;;;15.10;99.90;;;;;;5056568;28;20480;-60
2023/10/24 10:16:33;;;;;;;6.70;3.20;;;15.00;99.90;;;;;;5057404;28;20428;-61
2023/10/24 10:19:28;;;;;;;3.63;3.17;;;15.00;99.90;;;;;;5055387;28;20894;-61
2023/10/24 10:22:12;;;;;;;4.33;2.50;;;15.00;99.90;;;;;;5056059;28;20456;-62
2023/10/24 10:25:02;;;;;;;5.57;2.77;;;14.90;99.90;;;;;;5055849;28;20527;-57
2023/10/24 10:27:37;;;;;;;3.30;2.43;;;14.90;99.90;;;;;;5056419;28;20424;-61
2023/10/24 10:30:14;;;;;;;4.07;2.93;;;14.80;99.90;;;;;;5055626;28;20440;-62
2023/10/24 10:32:48;;;;;;;3.70;3.10;;;14.80;99.90;;;;;;5056042;28;20839;-62
2023/10/24 10:35:14;;;;;;;6.90;2.77;;;14.80;99.90;;;;;;5059159;28;20424;-61
2023/10/24 10:37:41;;;;;;;3.60;2.40;;;14.90;99.90;;;;;;5054887;28;20454;-61
2023/10/24 10:40:29;;;;;;;3.87;2.87;;;14.90;99.90;;;;;;5054514;28;20447;-61
2023/10/24 10:42:56;;;;;;;4.67;2.53;;;15.00;99.90;;;;;;5051724;28;20500;-61
2023/10/24 10:45:28;;;;;;;2.80;2.40;;;15.10;99.90;;;;;;5054615;28;20447;-60
2023/10/24 10:47:58;;;;;;;3.13;2.30;;;15.20;99.90;;;;;;5055581;28;20435;-62
2023/10/24 10:50:27;;;;;;;5.20;2.60;;;15.30;99.90;;;;;;5054715;28;20497;-59
2023/10/24 10:53:22;;;;;;;3.50;3.20;;;15.40;99.90;;;;;;5054675;28;20794;-61
2023/10/24 10:56:10;;;;;;;3.33;2.50;;;15.50;99.90;;;;;;5048295;28;20519;-62
2023/10/24 10:58:50;;;;;;;4.30;2.57;;;15.50;99.90;;;;;;5056126;28;20425;-62
2023/10/24 11:01:29;;;;;;;4.70;3.30;;;15.50;99.90;;;;;;5054971;28;20468;-61
2023/10/24 11:03:59;;;;;;;2.60;2.00;;;15.50;99.90;;;;;;5054583;28;20428;-62
2023/10/24 11:06:28;;;;;;;2.30;2.00;;;15.60;99.90;;;;;;5054427;28;20436;-60
2023/10/24 11:09:09;;;;;;;2.60;2.37;;;15.60;99.90;;;;;;5054364;28;20540;-61
2023/10/24 11:11:37;;;;;;;3.73;2.10;;;15.50;99.90;;;;;;5056501;28;20565;-60
2023/10/24 11:14:15;;;;;;;3.73;2.20;;;15.50;99.90;;;;;;5055197;28;20997;-61
2023/10/24 11:16:44;;;;;;;3.00;2.63;;;15.50;99.90;;;;;;5055176;28;20948;-61
2023/10/24 11:19:18;;;;;;;3.20;2.60;;;15.50;99.90;;;;;;5055133;28;20440;-61
2023/10/24 11:21:46;;;;;;;2.47;2.27;;;15.50;99.90;;;;;;5055130;28;20452;-61
2023/10/24 11:24:17;;;;;;;2.93;2.20;;;15.50;99.90;;;;;;5056452;28;20440;-60
2023/10/24 11:26:44;;;;;;;3.50;2.23;;;15.50;99.90;;;;;;5055909;28;20443;-61
2023/10/24 11:29:12;;;;;;;5.17;2.30;;;15.50;99.90;;;;;;5054334;28;20956;-61
2023/10/24 11:31:39;;;;;;;2.37;2.17;;;15.40;99.90;;;;;;5054732;28;20539;-61
2023/10/24 11:34:07;;;;;;;3.03;2.50;;;15.40;99.90;;;;;;5053466;28;20468;-61
2023/10/24 11:36:34;;;;;;;4.53;2.60;;;15.40;99.90;;;;;;5054496;28;20470;-61
2023/10/24 11:39:04;;;;;;;5.03;2.80;;;15.40;99.90;;;;;;5054793;28;20471;-61
2023/10/24 11:41:31;;;;;;;2.73;2.43;;;15.30;99.90;;;;;;5054331;28;20926;-61
2023/10/24 11:43:57;;;;;;;6.23;2.43;;;15.30;99.90;;;;;;5054814;28;20432;-60
2023/10/24 11:46:24;;;;;;;4.17;3.00;;;15.30;99.90;;;;;;5054685;28;20444;-62
2023/10/24 11:48:51;;;;;;;4.43;2.60;;;15.20;99.90;;;;;;5054480;28;20436;-61
2023/10/24 11:51:19;;;;;;;3.00;2.10;;;15.20;99.90;;;;;;5053855;28;20471;-61
2023/10/24 11:53:46;;;;;;;3.20;2.90;;;15.30;99.90;;;;;;5054173;28;20564;-62
2023/10/24 11:56:13;;;;;;;2.83;2.30;;;15.20;99.90;;;;;;5054318;28;20452;-62
2023/10/24 11:58:42;;;;;;;4.27;2.40;;;15.30;99.90;;;;;;5053976;28;20506;-62
2023/10/24 12:01:09;;;;;;;3.37;3.07;;;15.30;99.90;;;;;;5054493;28;20464;-59
2023/10/24 12:03:45;;;;;;;4.40;2.27;;;15.20;99.90;;;;;;5055779;28;20439;-61
2023/10/24 12:06:12;;;;;;;2.87;2.57;;;15.30;99.90;;;;;;5053809;28;20435;-62
2023/10/24 12:08:43;;;;;;;2.83;2.30;;;15.30;99.90;;;;;;5053807;28;20965;-61
2023/10/24 12:11:10;;;;;;;3.00;1.83;;;15.30;99.90;;;;;;5053517;28;20472;-60
2023/10/24 12:13:37;;;;;;;4.20;2.50;;;15.30;99.90;;;;;;5054281;28;20491;-62
2023/10/24 12:16:04;;;;;;;3.00;2.13;;;15.30;99.90;;;;;;5055000;28;20451;-61
2023/10/24 12:18:31;;;;;;;2.50;2.30;;;15.40;99.90;;;;;;5054005;28;20448;-62
2023/10/24 12:20:58;;;;;;;4.27;2.10;;;15.40;99.90;;;;;;5054500;28;20960;-63
2023/10/24 12:23:25;;;;;;;6.10;2.23;;;15.40;99.90;;;;;;5053889;28;20851;-61
2023/10/24 12:25:53;;;;;;;3.00;2.70;;;15.40;99.90;;;;;;5053201;28;20886;-61
2023/10/24 12:28:20;;;;;;;3.27;2.30;;;15.40;99.90;;;;;;5053189;28;20440;-61
2023/10/24 12:30:47;;;;;;;2.90;2.10;;;15.40;99.90;;;;;;5053386;28;20450;-62
2023/10/24 12:33:14;;;;;;;3.80;2.20;;;15.40;99.90;;;;;;5056484;28;20471;-60
2023/10/24 12:35:41;;;;;;;2.40;2.03;;;15.40;99.90;;;;;;5057490;28;20443;-61
2023/10/24 12:38:08;;;;;;;2.70;1.70;;;15.40;99.90;;;;;;5057958;28;20810;-61
2023/10/24 12:40:37;;;;;;;3.57;2.10;;;15.40;99.90;;;;;;5059073;28;20456;-59
2023/10/24 12:43:06;;;;;;;2.67;1.90;;;15.30;99.90;;;;;;5057943;28;20517;-62
2023/10/24 12:45:32;;;;;;;2.07;1.87;;;15.30;99.90;;;;;;5058563;28;20436;-61
2023/10/24 12:47:59;;;;;;;2.73;2.20;;;15.30;99.90;;;;;;5057924;28;20442;-60